MZN2184 KRDU-KLAX
Flight info
| Callsign | MZN2184 |
|---|---|
| Flight time | N/A |
| Altitude | 34000 |
| Route | SHPRD4 SHPRD DCT AWYAT Q52 CHOPZ DCT THRSR DCT VLKNN Q30 IZAAC DCT ELD DCT MULQN DCT FDRER DCT EWM J4 WLVRN DCT ESTWD HLYWD1 |
| Aircraft | A20N/M-SDE2E3FGHIRWXY/LB1 |
Departure
| Time | 2026-05-06 23:29 |
|---|---|
| Airport | Raleigh-Durham International Airport (KRDU) |
Arrival
| Time | N/A |
|---|---|
| Airport | Los Angeles International Airport (KLAX) |
| Time | Latitude | Longitude | Altitude | Speed | Heading |
|---|---|---|---|---|---|
| 2026-05-06 23:05 | 35.87781 | -78.79380 | 416 ft | 0 kts | 135° |
| 2026-05-06 23:19 | 35.87785 | -78.79384 | 416 ft | 8 kts | 135° |
| 2026-05-06 23:19 | 35.87814 | -78.79429 | 415 ft | 8 kts | 110° |
| 2026-05-06 23:19 | 35.87810 | -78.79456 | 415 ft | 0 kts | 35° |
| 2026-05-06 23:21 | 35.87842 | -78.79419 | 418 ft | 18 kts | 50° |
| 2026-05-06 23:21 | 35.87973 | -78.79250 | 426 ft | 30 kts | 45° |
| 2026-05-06 23:21 | 35.88125 | -78.79065 | 418 ft | 31 kts | 45° |
| 2026-05-06 23:22 | 35.88279 | -78.78871 | 420 ft | 31 kts | 45° |
| 2026-05-06 23:22 | 35.88433 | -78.78679 | 420 ft | 31 kts | 45° |
| 2026-05-06 23:22 | 35.88582 | -78.78496 | 419 ft | 30 kts | 45° |
| 2026-05-06 23:22 | 35.88728 | -78.78317 | 421 ft | 30 kts | 44° |
| 2026-05-06 23:23 | 35.88879 | -78.78135 | 420 ft | 31 kts | 44° |
| 2026-05-06 23:23 | 35.89032 | -78.77949 | 421 ft | 30 kts | 44° |
| 2026-05-06 23:23 | 35.89135 | -78.77805 | 422 ft | 7 kts | 79° |
| 2026-05-06 23:23 | 35.89198 | -78.77666 | 415 ft | 16 kts | 51° |
| 2026-05-06 23:24 | 35.89205 | -78.77656 | 415 ft | 0 kts | 48° |
| 2026-05-06 23:24 | 35.89234 | -78.77652 | 420 ft | 12 kts | 339° |
| 2026-05-06 23:24 | 35.89241 | -78.77660 | 422 ft | 0 kts | 308° |
| 2026-05-06 23:26 | 35.89246 | -78.77667 | 425 ft | 9 kts | 310° |
| 2026-05-06 23:27 | 35.89285 | -78.77712 | 418 ft | 8 kts | 317° |
| 2026-05-06 23:27 | 35.89295 | -78.77722 | 422 ft | 0 kts | 317° |
| 2026-05-06 23:28 | 35.89306 | -78.77734 | 424 ft | 15 kts | 317° |
| 2026-05-06 23:28 | 35.89317 | -78.77887 | 421 ft | 22 kts | 229° |
| 2026-05-06 23:28 | 35.89043 | -78.78224 | 425 ft | 93 kts | 224° |
| 2026-05-06 23:28 | 35.88441 | -78.78962 | 419 ft | 152 kts | 225° |
| 2026-05-06 23:29 | 35.87619 | -78.79950 | 789 ft | 170 kts | 224° |
| 2026-05-06 23:29 | 35.86750 | -78.80983 | 1354 ft | 183 kts | 224° |
| 2026-05-06 23:29 | 35.85846 | -78.82032 | 1259 ft | 185 kts | 223° |
| 2026-05-06 23:29 | 35.84824 | -78.83274 | 1513 ft | 218 kts | 226° |
| 2026-05-06 23:30 | 35.83760 | -78.84609 | 2509 ft | 216 kts | 225° |
| 2026-05-06 23:30 | 35.82651 | -78.85955 | 3105 ft | 233 kts | 225° |
| 2026-05-06 23:30 | 35.81437 | -78.87414 | 3557 ft | 254 kts | 225° |
| 2026-05-06 23:30 | 35.80145 | -78.88964 | 4240 ft | 262 kts | 225° |
| 2026-05-06 23:31 | 35.78839 | -78.90552 | 5087 ft | 265 kts | 229° |
| 2026-05-06 23:31 | 35.77965 | -78.92538 | 5898 ft | 267 kts | 257° |
| 2026-05-06 23:31 | 35.77916 | -78.94814 | 6702 ft | 269 kts | 280° |
| 2026-05-06 23:31 | 35.78376 | -78.97085 | 7216 ft | 278 kts | 286° |
| 2026-05-06 23:32 | 35.78924 | -78.99370 | 7045 ft | 275 kts | 285° |
| 2026-05-06 23:32 | 35.79407 | -79.01628 | 7036 ft | 273 kts | 283° |
| 2026-05-06 23:32 | 35.79821 | -79.03919 | 7036 ft | 275 kts | 281° |
| 2026-05-06 23:32 | 35.80186 | -79.06227 | 7034 ft | 274 kts | 280° |
| 2026-05-06 23:33 | 35.80525 | -79.08544 | 7068 ft | 276 kts | 280° |
| 2026-05-06 23:33 | 35.80856 | -79.10885 | 7467 ft | 279 kts | 279° |
| 2026-05-06 23:33 | 35.81186 | -79.13234 | 8339 ft | 278 kts | 279° |
| 2026-05-06 23:33 | 35.81518 | -79.15593 | 9129 ft | 281 kts | 279° |
| 2026-05-06 23:34 | 35.81854 | -79.17982 | 9881 ft | 285 kts | 279° |
| 2026-05-06 23:34 | 35.82197 | -79.20419 | 10468 ft | 297 kts | 279° |
| 2026-05-06 23:34 | 35.82560 | -79.22993 | 10684 ft | 319 kts | 279° |
| 2026-05-06 23:34 | 35.82950 | -79.25766 | 11005 ft | 335 kts | 279° |
| 2026-05-06 23:35 | 35.83325 | -79.28620 | 11682 ft | 339 kts | 276° |
| 2026-05-06 23:35 | 35.83422 | -79.31535 | 12384 ft | 343 kts | 268° |
| 2026-05-06 23:35 | 35.83217 | -79.34476 | 13062 ft | 346 kts | 264° |
| 2026-05-06 23:35 | 35.82983 | -79.37445 | 13721 ft | 350 kts | 264° |
| 2026-05-06 23:36 | 35.82754 | -79.40441 | 14376 ft | 353 kts | 265° |
| 2026-05-06 23:36 | 35.82525 | -79.43471 | 15007 ft | 357 kts | 265° |
| 2026-05-06 23:36 | 35.82372 | -79.45496 | 15421 ft | 359 kts | 265° |
| 2026-05-06 23:36 | 35.82139 | -79.48569 | 16024 ft | 362 kts | 265° |
| 2026-05-06 23:37 | 35.81902 | -79.51675 | 16617 ft | 366 kts | 264° |
| 2026-05-06 23:37 | 35.81555 | -79.54788 | 17185 ft | 369 kts | 258° |
| 2026-05-06 23:37 | 35.81017 | -79.57893 | 17744 ft | 372 kts | 258° |
| 2026-05-06 23:37 | 35.80480 | -79.61027 | 18298 ft | 375 kts | 258° |
| 2026-05-06 23:38 | 35.79944 | -79.64185 | 18836 ft | 378 kts | 258° |
| 2026-05-06 23:38 | 35.79402 | -79.67372 | 19363 ft | 381 kts | 258° |
| 2026-05-06 23:38 | 35.78856 | -79.70583 | 19873 ft | 385 kts | 258° |
| 2026-05-06 23:38 | 35.78312 | -79.73769 | 20370 ft | 387 kts | 258° |
| 2026-05-06 23:39 | 35.77754 | -79.77031 | 20869 ft | 391 kts | 258° |
| 2026-05-06 23:39 | 35.77191 | -79.80317 | 21358 ft | 393 kts | 258° |
| 2026-05-06 23:39 | 35.76624 | -79.83621 | 21825 ft | 396 kts | 258° |
| 2026-05-06 23:39 | 35.76052 | -79.86951 | 22294 ft | 399 kts | 258° |
| 2026-05-06 23:40 | 35.75474 | -79.90305 | 22732 ft | 402 kts | 258° |
| 2026-05-06 23:40 | 35.74890 | -79.93686 | 23097 ft | 405 kts | 258° |
| 2026-05-06 23:40 | 35.74303 | -79.97080 | 23348 ft | 406 kts | 258° |
| 2026-05-06 23:40 | 35.73714 | -80.00482 | 23598 ft | 407 kts | 258° |
| 2026-05-06 23:41 | 35.73122 | -80.03898 | 23849 ft | 409 kts | 258° |
| 2026-05-06 23:41 | 35.72524 | -80.07333 | 24101 ft | 411 kts | 258° |
| 2026-05-06 23:41 | 35.71924 | -80.10779 | 24350 ft | 412 kts | 258° |
| 2026-05-06 23:41 | 35.71321 | -80.14235 | 24601 ft | 414 kts | 258° |
| 2026-05-06 23:42 | 35.70715 | -80.17704 | 24851 ft | 416 kts | 258° |
| 2026-05-06 23:42 | 35.70105 | -80.21187 | 25101 ft | 417 kts | 258° |
| 2026-05-06 23:42 | 35.69493 | -80.24682 | 25352 ft | 419 kts | 258° |
| 2026-05-06 23:42 | 35.68876 | -80.28191 | 25603 ft | 420 kts | 258° |
| 2026-05-06 23:43 | 35.68257 | -80.31709 | 25856 ft | 422 kts | 258° |
| 2026-05-06 23:43 | 35.67633 | -80.35244 | 26104 ft | 424 kts | 258° |
| 2026-05-06 23:43 | 35.67006 | -80.38793 | 26354 ft | 425 kts | 258° |
| 2026-05-06 23:43 | 35.66376 | -80.42352 | 26614 ft | 427 kts | 257° |
| 2026-05-06 23:44 | 35.65564 | -80.45873 | 26860 ft | 429 kts | 250° |
| 2026-05-06 23:44 | 35.64401 | -80.49254 | 27103 ft | 431 kts | 243° |
| 2026-05-06 23:44 | 35.62902 | -80.52449 | 27354 ft | 433 kts | 236° |
| 2026-05-06 23:44 | 35.61233 | -80.55536 | 27609 ft | 435 kts | 237° |
| 2026-05-06 23:45 | 35.59569 | -80.58641 | 27857 ft | 436 kts | 237° |
| 2026-05-06 23:45 | 35.57899 | -80.61766 | 28109 ft | 438 kts | 237° |
| 2026-05-06 23:45 | 35.56225 | -80.64899 | 28361 ft | 440 kts | 237° |
| 2026-05-06 23:45 | 35.54542 | -80.68044 | 28610 ft | 441 kts | 237° |
| 2026-05-06 23:46 | 35.52851 | -80.71199 | 28860 ft | 443 kts | 237° |
| 2026-05-06 23:46 | 35.51152 | -80.74365 | 29111 ft | 445 kts | 237° |
| 2026-05-06 23:46 | 35.49448 | -80.77538 | 29361 ft | 446 kts | 237° |
| 2026-05-06 23:46 | 35.47738 | -80.80717 | 29611 ft | 448 kts | 237° |
| 2026-05-06 23:47 | 35.46017 | -80.83916 | 29859 ft | 450 kts | 237° |
| 2026-05-06 23:47 | 35.45305 | -80.85239 | 29965 ft | 451 kts | 237° |
| 2026-05-06 23:47 | 35.43575 | -80.88450 | 30216 ft | 452 kts | 237° |
| 2026-05-06 23:47 | 35.41837 | -80.91671 | 30466 ft | 454 kts | 237° |
| 2026-05-06 23:48 | 35.40091 | -80.94905 | 30716 ft | 455 kts | 237° |
| 2026-05-06 23:48 | 35.38340 | -80.98146 | 30967 ft | 457 kts | 237° |
| 2026-05-06 23:48 | 35.36584 | -81.01393 | 31216 ft | 458 kts | 237° |
| 2026-05-06 23:48 | 35.34826 | -81.04641 | 31467 ft | 457 kts | 237° |
| 2026-05-06 23:49 | 35.33068 | -81.07885 | 31714 ft | 457 kts | 237° |
| 2026-05-06 23:49 | 35.31313 | -81.11120 | 31964 ft | 456 kts | 237° |
| 2026-05-06 23:49 | 35.29558 | -81.14353 | 32214 ft | 456 kts | 237° |
| 2026-05-06 23:49 | 35.27804 | -81.17583 | 32461 ft | 455 kts | 236° |
| 2026-05-06 23:50 | 35.26051 | -81.20805 | 32711 ft | 455 kts | 236° |
| 2026-05-06 23:50 | 35.22547 | -81.27239 | 33211 ft | 454 kts | 236° |
| 2026-05-06 23:50 | 35.20797 | -81.30449 | 33458 ft | 453 kts | 236° |
| 2026-05-06 23:51 | 35.19048 | -81.33653 | 33707 ft | 453 kts | 236° |
| 2026-05-06 23:51 | 35.17301 | -81.36850 | 33931 ft | 452 kts | 236° |
| 2026-05-06 23:51 | 35.13805 | -81.43240 | 34001 ft | 451 kts | 236° |
| 2026-05-06 23:52 | 35.10313 | -81.49612 | 34001 ft | 452 kts | 236° |
| 2026-05-06 23:52 | 35.06815 | -81.55982 | 34001 ft | 451 kts | 236° |
| 2026-05-06 23:53 | 35.03339 | -81.62302 | 33998 ft | 452 kts | 236° |
| 2026-05-06 23:53 | 34.99825 | -81.68651 | 34004 ft | 451 kts | 236° |
| 2026-05-06 23:54 | 34.96308 | -81.74991 | 34001 ft | 451 kts | 236° |
| 2026-05-06 23:54 | 34.92792 | -81.81322 | 33995 ft | 451 kts | 236° |
| 2026-05-06 23:55 | 34.89271 | -81.87651 | 33997 ft | 451 kts | 236° |
| 2026-05-06 23:55 | 34.85750 | -81.93968 | 33996 ft | 451 kts | 236° |
| 2026-05-06 23:56 | 34.82223 | -82.00285 | 33997 ft | 451 kts | 236° |
| 2026-05-06 23:56 | 34.78701 | -82.06581 | 33706 ft | 448 kts | 236° |
| 2026-05-06 23:57 | 34.76949 | -82.09710 | 33170 ft | 448 kts | 236° |
| 2026-05-06 23:57 | 34.75195 | -82.12837 | 32666 ft | 447 kts | 236° |
| 2026-05-06 23:57 | 34.73438 | -82.15969 | 32464 ft | 451 kts | 236° |
| 2026-05-06 23:57 | 34.71661 | -82.19134 | 32550 ft | 455 kts | 236° |
| 2026-05-06 23:58 | 34.69877 | -82.22308 | 32748 ft | 455 kts | 236° |
| 2026-05-06 23:58 | 34.68091 | -82.25483 | 32947 ft | 454 kts | 236° |
| 2026-05-06 23:58 | 34.66309 | -82.28648 | 33148 ft | 454 kts | 236° |
| 2026-05-06 23:58 | 34.64525 | -82.31812 | 33346 ft | 453 kts | 236° |
| 2026-05-06 23:59 | 34.62745 | -82.34968 | 33545 ft | 453 kts | 236° |
| 2026-05-06 23:59 | 34.60964 | -82.38122 | 33742 ft | 453 kts | 236° |
| 2026-05-06 23:59 | 34.59184 | -82.41274 | 33944 ft | 453 kts | 236° |
| 2026-05-06 23:59 | 34.57404 | -82.44420 | 33999 ft | 452 kts | 236° |
| 2026-05-07 00:00 | 34.53845 | -82.50705 | 34001 ft | 452 kts | 236° |
| 2026-05-07 00:00 | 34.50285 | -82.56981 | 34002 ft | 452 kts | 236° |
| 2026-05-07 00:01 | 34.46723 | -82.63250 | 34001 ft | 451 kts | 236° |
| 2026-05-07 00:01 | 34.43155 | -82.69515 | 33999 ft | 452 kts | 236° |
| 2026-05-07 00:02 | 34.39582 | -82.75780 | 34003 ft | 452 kts | 236° |
| 2026-05-07 00:02 | 34.36008 | -82.82037 | 34006 ft | 452 kts | 236° |
| 2026-05-07 00:03 | 34.32426 | -82.88292 | 34006 ft | 452 kts | 235° |
| 2026-05-07 00:03 | 34.28836 | -82.94536 | 34004 ft | 452 kts | 235° |
| 2026-05-07 00:04 | 34.25244 | -83.00777 | 34004 ft | 452 kts | 235° |
| 2026-05-07 00:04 | 34.21649 | -83.07012 | 34005 ft | 452 kts | 235° |
| 2026-05-07 00:05 | 34.18053 | -83.13240 | 34003 ft | 452 kts | 235° |
| 2026-05-07 00:05 | 34.14455 | -83.19459 | 34008 ft | 452 kts | 235° |
| 2026-05-07 00:06 | 34.12658 | -83.22562 | 34190 ft | 450 kts | 235° |
| 2026-05-07 00:06 | 34.10869 | -83.25647 | 34516 ft | 447 kts | 235° |
| 2026-05-07 00:06 | 34.09092 | -83.28710 | 34832 ft | 444 kts | 235° |
| 2026-05-07 00:06 | 34.07328 | -83.31748 | 35154 ft | 440 kts | 235° |
| 2026-05-07 00:07 | 34.05578 | -83.34759 | 35472 ft | 436 kts | 235° |
| 2026-05-07 00:07 | 34.03843 | -83.37741 | 35797 ft | 432 kts | 235° |
| 2026-05-07 00:07 | 34.02119 | -83.40703 | 35970 ft | 432 kts | 235° |
| 2026-05-07 00:07 | 34.00411 | -83.43634 | 35997 ft | 435 kts | 235° |
| 2026-05-07 00:08 | 33.96900 | -83.49652 | 36004 ft | 443 kts | 235° |
| 2026-05-07 00:08 | 33.93332 | -83.55759 | 36001 ft | 449 kts | 235° |
| 2026-05-07 00:09 | 33.89713 | -83.61941 | 36001 ft | 448 kts | 235° |
| 2026-05-07 00:09 | 33.86287 | -83.68124 | 35999 ft | 448 kts | 242° |
| 2026-05-07 00:10 | 33.83801 | -83.74984 | 36003 ft | 448 kts | 250° |
| 2026-05-07 00:10 | 33.81695 | -83.82029 | 35999 ft | 447 kts | 250° |
| 2026-05-07 00:11 | 33.79572 | -83.89050 | 35997 ft | 447 kts | 250° |
| 2026-05-07 00:11 | 33.77445 | -83.96063 | 35988 ft | 446 kts | 250° |
| 2026-05-07 00:12 | 33.75315 | -84.03067 | 35985 ft | 446 kts | 250° |
| 2026-05-07 00:12 | 33.73184 | -84.10062 | 35985 ft | 446 kts | 250° |
| 2026-05-07 00:13 | 33.71048 | -84.17054 | 35990 ft | 446 kts | 250° |
| 2026-05-07 00:13 | 33.68910 | -84.24041 | 35988 ft | 446 kts | 250° |
| 2026-05-07 00:14 | 33.66766 | -84.31028 | 35990 ft | 446 kts | 250° |
| 2026-05-07 00:14 | 33.64623 | -84.38020 | 35993 ft | 446 kts | 251° |
| 2026-05-07 00:15 | 33.63254 | -84.45265 | 35987 ft | 446 kts | 264° |
| 2026-05-07 00:15 | 33.63160 | -84.52702 | 35995 ft | 446 kts | 272° |
| 2026-05-07 00:16 | 33.63361 | -84.60147 | 35995 ft | 447 kts | 272° |
| 2026-05-07 00:16 | 33.63545 | -84.67605 | 35999 ft | 447 kts | 271° |
| 2026-05-07 00:17 | 33.63725 | -84.75074 | 36005 ft | 448 kts | 271° |
| 2026-05-07 00:17 | 33.63901 | -84.82497 | 36007 ft | 448 kts | 271° |
| 2026-05-07 00:18 | 33.64073 | -84.89981 | 36006 ft | 449 kts | 271° |
| 2026-05-07 00:18 | 33.64242 | -84.97470 | 36007 ft | 449 kts | 271° |
| 2026-05-07 00:19 | 33.64406 | -85.04958 | 36010 ft | 449 kts | 271° |
| 2026-05-07 00:19 | 33.64565 | -85.12452 | 36010 ft | 449 kts | 271° |
| 2026-05-07 00:20 | 33.64720 | -85.19942 | 36009 ft | 449 kts | 271° |
| 2026-05-07 00:20 | 33.64870 | -85.27434 | 36007 ft | 449 kts | 271° |
| 2026-05-07 00:21 | 33.65015 | -85.34923 | 36009 ft | 449 kts | 271° |
| 2026-05-07 00:21 | 33.65156 | -85.42408 | 36007 ft | 448 kts | 271° |
| 2026-05-07 00:22 | 33.65270 | -85.48625 | 36005 ft | 448 kts | 271° |
| 2026-05-07 00:22 | 33.65403 | -85.56100 | 36004 ft | 448 kts | 271° |
| 2026-05-07 00:23 | 33.65531 | -85.63576 | 36000 ft | 448 kts | 271° |
| 2026-05-07 00:23 | 33.65654 | -85.71047 | 36005 ft | 448 kts | 271° |
| 2026-05-07 00:24 | 33.65774 | -85.78516 | 35993 ft | 447 kts | 271° |
| 2026-05-07 00:24 | 33.65888 | -85.85981 | 36000 ft | 447 kts | 271° |
| 2026-05-07 00:25 | 33.65998 | -85.93438 | 35999 ft | 447 kts | 271° |
| 2026-05-07 00:25 | 33.66103 | -86.00898 | 35996 ft | 447 kts | 271° |
| 2026-05-07 00:26 | 33.66204 | -86.08354 | 35998 ft | 447 kts | 271° |
| 2026-05-07 00:26 | 33.66301 | -86.15812 | 36002 ft | 447 kts | 271° |
| 2026-05-07 00:27 | 33.66393 | -86.23269 | 36000 ft | 447 kts | 271° |
| 2026-05-07 00:27 | 33.66480 | -86.30722 | 35999 ft | 447 kts | 271° |
| 2026-05-07 00:28 | 33.66563 | -86.38177 | 35995 ft | 447 kts | 271° |
| 2026-05-07 00:28 | 33.66642 | -86.45637 | 35997 ft | 447 kts | 271° |
| 2026-05-07 00:29 | 33.66716 | -86.53090 | 35999 ft | 447 kts | 270° |
| 2026-05-07 00:30 | 33.66850 | -86.68010 | 35996 ft | 447 kts | 270° |
| 2026-05-07 00:30 | 33.66911 | -86.75469 | 35999 ft | 447 kts | 270° |
| 2026-05-07 00:31 | 33.66967 | -86.82930 | 36002 ft | 447 kts | 270° |
| 2026-05-07 00:31 | 33.66917 | -86.90391 | 36003 ft | 447 kts | 265° |
| 2026-05-07 00:32 | 33.66155 | -86.97796 | 36003 ft | 447 kts | 263° |
| 2026-05-07 00:32 | 33.65357 | -87.05197 | 36006 ft | 447 kts | 263° |
| 2026-05-07 00:33 | 33.64560 | -87.12550 | 36005 ft | 447 kts | 262° |
| 2026-05-07 00:33 | 33.63748 | -87.19949 | 36005 ft | 447 kts | 262° |
| 2026-05-07 00:34 | 33.62930 | -87.27349 | 36006 ft | 447 kts | 262° |
| 2026-05-07 00:34 | 33.62109 | -87.34741 | 36005 ft | 447 kts | 262° |
| 2026-05-07 00:35 | 33.61283 | -87.42134 | 36007 ft | 447 kts | 262° |
| 2026-05-07 00:35 | 33.60447 | -87.49581 | 36000 ft | 447 kts | 262° |
| 2026-05-07 00:36 | 33.59620 | -87.56904 | 35999 ft | 447 kts | 262° |
| 2026-05-07 00:36 | 33.58782 | -87.64286 | 36000 ft | 446 kts | 262° |
| 2026-05-07 00:37 | 33.57940 | -87.71658 | 35998 ft | 446 kts | 262° |
| 2026-05-07 00:37 | 33.57093 | -87.79033 | 36002 ft | 446 kts | 262° |
| 2026-05-07 00:38 | 33.56243 | -87.86401 | 36002 ft | 446 kts | 262° |
| 2026-05-07 00:38 | 33.55389 | -87.93768 | 35995 ft | 446 kts | 262° |
| 2026-05-07 00:39 | 33.54529 | -88.01134 | 35999 ft | 446 kts | 262° |
| 2026-05-07 00:39 | 33.53666 | -88.08498 | 35999 ft | 446 kts | 262° |
| 2026-05-07 00:40 | 33.52800 | -88.15844 | 35998 ft | 446 kts | 262° |
| 2026-05-07 00:40 | 33.51928 | -88.23206 | 36001 ft | 446 kts | 262° |
| 2026-05-07 00:41 | 33.51051 | -88.30567 | 35999 ft | 446 kts | 262° |
| 2026-05-07 00:41 | 33.50170 | -88.37927 | 36005 ft | 446 kts | 262° |
| 2026-05-07 00:42 | 33.49285 | -88.45286 | 36002 ft | 446 kts | 262° |
| 2026-05-07 00:42 | 33.48540 | -88.52660 | 36001 ft | 446 kts | 268° |
| 2026-05-07 00:43 | 33.48496 | -88.60091 | 36001 ft | 446 kts | 270° |
| 2026-05-07 00:43 | 33.48455 | -88.67522 | 36000 ft | 446 kts | 269° |
| 2026-05-07 00:44 | 33.48405 | -88.74954 | 36000 ft | 446 kts | 269° |
| 2026-05-07 00:44 | 33.48350 | -88.82387 | 35999 ft | 446 kts | 269° |
| 2026-05-07 00:45 | 33.48291 | -88.89816 | 36001 ft | 446 kts | 269° |
| 2026-05-07 00:45 | 33.48227 | -88.97251 | 36003 ft | 446 kts | 269° |
| 2026-05-07 00:46 | 33.48159 | -89.04684 | 36001 ft | 446 kts | 269° |
| 2026-05-07 00:46 | 33.48087 | -89.12113 | 36002 ft | 446 kts | 269° |
| 2026-05-07 00:47 | 33.48009 | -89.19549 | 35999 ft | 446 kts | 269° |
| 2026-05-07 00:47 | 33.47928 | -89.26981 | 35998 ft | 446 kts | 269° |
| 2026-05-07 00:48 | 33.47842 | -89.34411 | 35999 ft | 446 kts | 269° |
| 2026-05-07 00:48 | 33.47752 | -89.41844 | 36000 ft | 446 kts | 269° |
| 2026-05-07 00:49 | 33.47657 | -89.49279 | 36000 ft | 446 kts | 269° |
| 2026-05-07 00:49 | 33.47559 | -89.56660 | 36001 ft | 446 kts | 269° |
| 2026-05-07 00:50 | 33.47456 | -89.64096 | 36001 ft | 446 kts | 269° |
| 2026-05-07 00:50 | 33.47348 | -89.71530 | 36000 ft | 446 kts | 269° |
| 2026-05-07 00:51 | 33.47235 | -89.78965 | 36001 ft | 446 kts | 269° |
| 2026-05-07 00:51 | 33.47118 | -89.86401 | 36003 ft | 446 kts | 269° |
| 2026-05-07 00:52 | 33.46997 | -89.93837 | 36002 ft | 446 kts | 269° |
| 2026-05-07 00:52 | 33.46871 | -90.01269 | 36003 ft | 446 kts | 269° |
| 2026-05-07 00:53 | 33.46741 | -90.08703 | 36004 ft | 446 kts | 269° |
| 2026-05-07 00:53 | 33.46606 | -90.16138 | 36004 ft | 446 kts | 269° |
| 2026-05-07 00:54 | 33.46467 | -90.23568 | 36005 ft | 446 kts | 269° |
| 2026-05-07 00:54 | 33.46136 | -90.30986 | 36002 ft | 446 kts | 264° |
| 2026-05-07 00:55 | 33.45577 | -90.38379 | 36003 ft | 446 kts | 265° |
| 2026-05-07 00:55 | 33.45034 | -90.45729 | 35999 ft | 446 kts | 265° |
| 2026-05-07 00:56 | 33.44477 | -90.53123 | 35999 ft | 446 kts | 265° |
| 2026-05-07 00:56 | 33.43912 | -90.60512 | 36003 ft | 446 kts | 265° |
| 2026-05-07 00:57 | 33.43342 | -90.67902 | 35998 ft | 446 kts | 265° |
| 2026-05-07 00:57 | 33.42769 | -90.75285 | 36002 ft | 446 kts | 264° |
| 2026-05-07 00:58 | 33.42190 | -90.82672 | 35997 ft | 446 kts | 264° |
| 2026-05-07 00:58 | 33.41607 | -90.90057 | 36002 ft | 446 kts | 264° |
| 2026-05-07 00:59 | 33.40725 | -91.01129 | 36000 ft | 446 kts | 264° |
| 2026-05-07 01:00 | 33.40132 | -91.08512 | 36002 ft | 446 kts | 264° |
| 2026-05-07 01:00 | 33.39533 | -91.15896 | 35998 ft | 446 kts | 264° |
| 2026-05-07 01:01 | 33.38931 | -91.23275 | 35999 ft | 446 kts | 264° |
| 2026-05-07 01:01 | 33.38324 | -91.30657 | 36003 ft | 446 kts | 264° |
| 2026-05-07 01:02 | 33.37713 | -91.38038 | 36001 ft | 446 kts | 264° |
| 2026-05-07 01:02 | 33.37097 | -91.45418 | 36002 ft | 446 kts | 264° |
| 2026-05-07 01:03 | 33.36477 | -91.52803 | 36002 ft | 446 kts | 264° |
| 2026-05-07 01:03 | 33.35852 | -91.60182 | 36000 ft | 446 kts | 264° |
| 2026-05-07 01:04 | 33.35223 | -91.67562 | 36000 ft | 446 kts | 264° |
| 2026-05-07 01:04 | 33.34589 | -91.74938 | 35997 ft | 446 kts | 264° |
| 2026-05-07 01:05 | 33.33952 | -91.82315 | 35999 ft | 446 kts | 264° |
| 2026-05-07 01:05 | 33.33313 | -91.89646 | 36000 ft | 446 kts | 264° |
| 2026-05-07 01:06 | 33.32667 | -91.97019 | 36000 ft | 446 kts | 264° |
| 2026-05-07 01:06 | 33.32016 | -92.04393 | 36003 ft | 446 kts | 264° |
| 2026-05-07 01:07 | 33.31361 | -92.11767 | 36001 ft | 446 kts | 264° |
| 2026-05-07 01:07 | 33.30702 | -92.19136 | 36001 ft | 446 kts | 264° |
| 2026-05-07 01:08 | 33.30038 | -92.26509 | 36001 ft | 446 kts | 264° |
| 2026-05-07 01:08 | 33.29370 | -92.33875 | 36001 ft | 446 kts | 264° |
| 2026-05-07 01:09 | 33.28811 | -92.40001 | 36000 ft | 446 kts | 264° |
| 2026-05-07 01:09 | 33.28135 | -92.47368 | 36000 ft | 446 kts | 264° |
| 2026-05-07 01:10 | 33.27455 | -92.54729 | 35998 ft | 446 kts | 264° |
| 2026-05-07 01:10 | 33.26770 | -92.62090 | 35998 ft | 446 kts | 264° |
| 2026-05-07 01:11 | 33.26082 | -92.69452 | 36001 ft | 446 kts | 264° |
| 2026-05-07 01:11 | 33.25256 | -92.76788 | 35998 ft | 446 kts | 259° |
| 2026-05-07 01:12 | 33.24157 | -92.84071 | 35995 ft | 446 kts | 260° |
| 2026-05-07 01:12 | 33.23080 | -92.91363 | 35995 ft | 446 kts | 260° |
| 2026-05-07 01:13 | 33.21993 | -92.98651 | 36000 ft | 446 kts | 260° |
| 2026-05-07 01:13 | 33.20896 | -93.05939 | 35996 ft | 446 kts | 260° |
| 2026-05-07 01:14 | 33.19794 | -93.13226 | 36000 ft | 446 kts | 260° |
| 2026-05-07 01:14 | 33.18688 | -93.20508 | 36000 ft | 446 kts | 259° |
| 2026-05-07 01:15 | 33.17577 | -93.27794 | 35998 ft | 446 kts | 259° |
| 2026-05-07 01:15 | 33.16461 | -93.35079 | 35997 ft | 446 kts | 259° |
| 2026-05-07 01:16 | 33.15342 | -93.42362 | 36003 ft | 446 kts | 259° |
| 2026-05-07 01:16 | 33.14217 | -93.49647 | 36004 ft | 446 kts | 259° |
| 2026-05-07 01:17 | 33.13088 | -93.56931 | 36002 ft | 446 kts | 259° |
| 2026-05-07 01:17 | 33.11955 | -93.64211 | 36003 ft | 446 kts | 259° |
| 2026-05-07 01:18 | 33.10826 | -93.71442 | 36002 ft | 446 kts | 259° |
| 2026-05-07 01:18 | 33.09684 | -93.78721 | 36005 ft | 446 kts | 259° |
| 2026-05-07 01:19 | 33.08538 | -93.85996 | 36002 ft | 446 kts | 259° |
| 2026-05-07 01:19 | 33.07388 | -93.93269 | 36001 ft | 446 kts | 259° |
| 2026-05-07 01:20 | 33.06235 | -94.00540 | 35999 ft | 446 kts | 259° |
| 2026-05-07 01:20 | 33.05077 | -94.07807 | 36001 ft | 446 kts | 259° |
| 2026-05-07 01:21 | 33.03914 | -94.15074 | 36001 ft | 446 kts | 259° |
| 2026-05-07 01:21 | 33.02749 | -94.22333 | 35997 ft | 446 kts | 259° |
| 2026-05-07 01:22 | 33.01579 | -94.29591 | 36001 ft | 446 kts | 259° |
| 2026-05-07 01:22 | 33.00404 | -94.36849 | 35996 ft | 446 kts | 259° |
| 2026-05-07 01:23 | 32.99226 | -94.44101 | 35996 ft | 446 kts | 259° |
| 2026-05-07 01:23 | 32.98043 | -94.51355 | 35997 ft | 446 kts | 259° |
| 2026-05-07 01:24 | 32.96857 | -94.58604 | 36002 ft | 446 kts | 259° |
| 2026-05-07 01:24 | 32.95666 | -94.65850 | 35996 ft | 446 kts | 259° |
| 2026-05-07 01:25 | 32.94471 | -94.73097 | 35999 ft | 446 kts | 259° |
| 2026-05-07 01:25 | 32.93271 | -94.80346 | 36004 ft | 446 kts | 259° |
| 2026-05-07 01:26 | 32.92067 | -94.87591 | 35998 ft | 446 kts | 259° |
| 2026-05-07 01:26 | 32.90859 | -94.94833 | 35998 ft | 446 kts | 259° |
| 2026-05-07 01:27 | 32.89646 | -95.02079 | 35999 ft | 446 kts | 259° |
| 2026-05-07 01:27 | 32.88430 | -95.09319 | 36000 ft | 446 kts | 259° |
| 2026-05-07 01:28 | 32.87209 | -95.16559 | 36000 ft | 446 kts | 258° |
| 2026-05-07 01:28 | 32.85984 | -95.23796 | 36001 ft | 446 kts | 258° |
| 2026-05-07 01:29 | 32.84753 | -95.31036 | 35998 ft | 446 kts | 258° |
| 2026-05-07 01:29 | 32.83520 | -95.38269 | 35998 ft | 446 kts | 258° |
| 2026-05-07 01:30 | 32.82283 | -95.45499 | 36000 ft | 447 kts | 258° |
| 2026-05-07 01:30 | 32.81040 | -95.52735 | 36000 ft | 447 kts | 258° |
| 2026-05-07 01:31 | 32.79793 | -95.59967 | 36002 ft | 447 kts | 258° |
| 2026-05-07 01:31 | 32.78542 | -95.67196 | 36003 ft | 447 kts | 258° |
| 2026-05-07 01:32 | 32.77287 | -95.74426 | 36002 ft | 447 kts | 258° |
| 2026-05-07 01:32 | 32.76043 | -95.81609 | 36000 ft | 447 kts | 260° |
| 2026-05-07 01:33 | 32.75603 | -95.88943 | 35998 ft | 446 kts | 272° |
| 2026-05-07 01:33 | 32.75788 | -95.96311 | 35997 ft | 446 kts | 271° |
| 2026-05-07 01:34 | 32.75958 | -96.03687 | 35998 ft | 446 kts | 271° |
| 2026-05-07 01:34 | 32.76122 | -96.11058 | 35998 ft | 446 kts | 271° |
| 2026-05-07 01:35 | 32.76282 | -96.18428 | 36002 ft | 446 kts | 271° |
| 2026-05-07 01:35 | 32.76436 | -96.25798 | 35999 ft | 446 kts | 271° |
| 2026-05-07 01:36 | 32.76586 | -96.33172 | 36004 ft | 447 kts | 271° |
| 2026-05-07 01:36 | 32.76732 | -96.40551 | 36001 ft | 447 kts | 271° |
| 2026-05-07 01:37 | 32.76874 | -96.47927 | 36005 ft | 447 kts | 271° |
| 2026-05-07 01:37 | 32.77011 | -96.55305 | 36002 ft | 447 kts | 271° |
| 2026-05-07 01:38 | 32.77144 | -96.62692 | 36002 ft | 447 kts | 271° |
| 2026-05-07 01:38 | 32.77272 | -96.70075 | 36004 ft | 447 kts | 271° |
| 2026-05-07 01:39 | 32.77397 | -96.77454 | 36003 ft | 447 kts | 271° |
| 2026-05-07 01:39 | 32.77517 | -96.84830 | 36002 ft | 447 kts | 271° |
| 2026-05-07 01:40 | 32.77631 | -96.92162 | 36002 ft | 447 kts | 271° |
| 2026-05-07 01:40 | 32.77743 | -96.99540 | 36001 ft | 447 kts | 271° |
| 2026-05-07 01:41 | 32.77850 | -97.06917 | 36004 ft | 446 kts | 271° |
| 2026-05-07 01:41 | 32.77952 | -97.14293 | 35999 ft | 446 kts | 271° |
| 2026-05-07 01:42 | 32.78018 | -97.19169 | 35998 ft | 446 kts | 271° |
| 2026-05-07 01:42 | 32.78078 | -97.23779 | 36000 ft | 446 kts | 271° |
| 2026-05-07 01:43 | 32.78083 | -97.24185 | 36003 ft | 446 kts | 271° |
| 2026-05-07 01:43 | 32.78088 | -97.24521 | 35999 ft | 446 kts | 271° |
| 2026-05-07 01:44 | 32.78091 | -97.24767 | 35998 ft | 446 kts | 271° |